Tiempo atmosférico en la estación meteorológica de Tacoronte, Santa Cruz de Tenerife (310 m.)



Fecha
DESCASC
Temp. máxima en grados centígrados (hora)
DESCASC
Temp. mínima en grados centígrados (hora)
DESCASC
Temp. media en grados centígrados
DESCASC
Racha de viento máxima en m/sg (hora)
DESCASC
Velocidad máxima media en intervalos de 10 minutos(hora)
DESCASC
Precipitaciones diarias en mm
DESCASC
Precipitaciones de 00:00 a 06:00 en mm
DESCASC
Precipitaciones de 06:00 a 12:00 en mm
DESCASC
Precipitaciones de 12:00 a 18:00 en mm
DESCASC
Precipitaciones de 18:00 a 24:00 en mm
DESCASC
05-04-2020 23.8 (17:30) 15.6 (04:00) 19.7 5.83 (04:50) 3.33 (03:20) 0 0 0 0 0
04-04-2020 22.2 (15:30) 14.9 (08:10) 18.6 7.22 (18:00) 4.72 (19:00) 0 0 0 0 0
03-04-2020 24 (16:40) 13.7 (07:00) 18.8 7.22 (11:20) 4.72 (11:30) 0 0 0 0 0
02-04-2020 21 (14:50) 11.7 (00:00) 16.3 6.67 (05:40) 5.56 (05:40) 0 0 0 0 0
01-04-2020 20.2 (16:40) 12.9 (00:00) 16.6 6.67 (15:40) 3.61 (15:00) 0 0 0 0 0
31-03-2020 20.7 (15:40) 15.6 (00:00) 18.2 5 (04:10) 3.33 (15:00) 0 0 0 0 0
30-03-2020 19.7 (15:30) 12.4 (00:00) 16.1 8.33 (19:50) 4.17 (20:00) 0 0 0 0 0
29-03-2020 19.3 (16:20) 11.7 (00:00) 15.5 5.28 (15:40) 3.33 (08:30) 0 0 0 0 0
28-03-2020 18.6 (15:00) 12.3 (00:00) 15.5 6.39 (08:30) 4.44 (08:30) 0.4 0.2 0 0 0.2
27-03-2020 19.1 (14:40) 12.9 (00:00) 16 8.89 (17:50) 4.72 (17:40) 7.6 4.4 0 0.2 3
26-03-2020 18.8 (15:30) 11.3 (00:00) 15 5.28 (01:50) 3.89 (01:50) 0 0 0 0 0
25-03-2020 18.4 (13:00) 13.1 (00:00) 15.8 6.39 (14:50) 3.89 (14:30) 3 2.8 0.2 0 0
24-03-2020 18 (15:10) 13.5 (00:00) 15.8 10.28 (02:20) 4.44 (01:00) 2.8 0.6 1.4 0 0.8
23-03-2020 15.3 (18:10) 11.7 (00:00) 13.5 17.78 (02:30) 10 (04:20) 7.8 1.6 0.8 4 1.4
22-03-2020 18.6 (14:20) 12 (23:10) 15.3 19.72 (23:00) 10 (23:00) 9.2 0 0 6.2 3
21-03-2020 18.5 (15:50) 13.3 (00:00) 15.9 8.06 (08:20) 5 (08:20) 0 0 0 0 0
20-03-2020 19 (14:50) 13.6 (00:00) 16.3 7.22 (07:20) 3.89 (16:20) 3.2 0.2 0.2 0.6 2.2
19-03-2020 17.3 (16:00) 14.2 (00:00) 15.7 9.17 (01:40) 5.28 (03:10) 1.8 0 1.2 0.4 0.2
18-03-2020 17.6 (15:10) 12.2 (00:00) 14.9 8.89 (10:10) 5.28 (17:30) 3 2.8 0 0.2 0
17-03-2020 16.6 (15:40) 11.3 (00:00) 14 10 (00:10) 6.39 (00:10) 4.6 0.8 0.6 1.8 1.4
16-03-2020 18.4 (11:20) 13.5 (00:00) 15.9 10 (23:10) 6.67 (22:00) 3.8 1.6 0 2.2 0
15-03-2020 18.3 (15:00) 11.4 (00:00) 14.8 8.33 (22:40) 5.56 (22:40) 3.6 1.2 0.6 0.6 1.2
14-03-2020 19.3 (13:10) 14 (00:00) 16.6 9.72 (15:10) 6.39 (14:50) 0 0 0 0 0
13-03-2020 20.9 (13:40) 12.9 (06:50) 16.9 10 (11:50) 6.94 (15:40) 0 0 0 0 0
12-03-2020 21.9 (14:40) 12.7 (00:00) 17.3 6.67 (06:10) 4.17 (06:40) 0 0 0 0 0
11-03-2020 23.9 (13:20) 13.1 (00:00) 18.5 3.89 (07:30) 2.5 (07:30) 0 0 0 0 0
10-03-2020 22.3 (16:40) 14 (00:00) 18.1 10.28 (00:20) 6.94 (00:20) 0 0 0 0 0
09-03-2020 27.1 (12:40) 13.7 (00:00) 20.4 11.67 (10:20) 6.67 (23:50) 0 0 0 0 0

Gráficas

Temp. máximas Temp. mínimas Temp. medias Precipitaciones Rachas de viento máximas Velocidades máximas media en intervalos de 10 minutos

Datos horarios

Fecha y hora oficial Temperatura (ºC) Velocidad del viento (km/h) Dirección del viento Racha (km/h) Dirección de racha Precipitación (mm) Presión (hPa) Tendencia (hPa) Humedad (%)
2020-04-07 23:00:00 17.6 7 Nordeste 11 Nordeste 0 -- -- 92
2020-04-07 22:00:00 17.7 5 Nordeste 13 Nordeste 0 -- -- 92
2020-04-07 21:00:00 17.8 10 Nordeste 16 Nordeste 0 -- -- 90
2020-04-07 20:00:00 19 4 Noroeste 14 Noroeste 0 -- -- 84
2020-04-07 19:00:00 19.9 6 Oeste 13 Noroeste 0 -- -- 75
2020-04-07 18:00:00 21.6 7 Noroeste 18 Oeste 0 -- -- 69
2020-04-07 17:00:00 22.1 7 Norte 15 Nordeste 0 -- -- 71
2020-04-07 16:00:00 22.4 8 Noroeste 16 Norte 0 -- -- 69
2020-04-07 15:00:00 20.8 6 Noroeste 17 Norte 0 -- -- 74
2020-04-07 14:00:00 21.4 9 Norte 24 Nordeste 0 -- -- 77
2020-04-07 13:00:00 21.5 17 Nordeste 28 Nordeste 0 -- -- 75
2020-04-07 12:00:00 20.9 12 Norte 21 Norte 0 -- -- 78
2020-04-07 11:00:00 19.8 8 Nordeste 17 Este 0 -- -- 76
2020-04-07 10:00:00 18.9 7 Nordeste 13 Nordeste 0 -- -- 81
2020-04-07 09:00:00 16.8 6 Este 14 Sudeste 0 -- -- 81
2020-04-07 08:00:00 15.3 13 Sudeste 19 Sudeste 0 -- -- 83
2020-04-07 07:00:00 15.4 11 Sudeste 15 Sudeste 0 -- -- 88
2020-04-07 06:00:00 15.8 5 Sudeste 12 Este 0 -- -- 93
2020-04-07 05:00:00 16.4 8 Este 13 Este 0 -- -- 95
2020-04-07 04:00:00 16.5 4 Sur 12 Sudeste 0 -- -- 91
2020-04-07 03:00:00 15.3 9 Sudeste 14 Sudeste 0 -- -- 92
2020-04-07 02:00:00 15.4 10 Sudeste 14 Sudeste 0 -- -- 89
2020-04-07 01:00:00 15.4 11 Sudeste 14 Sudeste 0 -- -- 86
2020-04-07 00:00:00 15.8 8 Sudeste 11 Sudeste 0 -- -- 83
2020-04-06 23:00:00 16.1 7 Sudeste 9 Sudeste 0 -- -- 84
2020-04-06 22:00:00 17.2 5 Sudeste 8 Nordeste 0 -- -- 84
2020-04-06 21:00:00 18 5 Nordeste 10 Nordeste 0 -- -- 86
2020-04-06 20:00:00 19.6 4 Norte 14 Noroeste 0 -- -- 79
2020-04-06 19:00:00 20.9 8 Noroeste 18 Norte 0 -- -- 72
2020-04-06 18:00:00 21.5 10 Noroeste 21 Noroeste 0 -- -- 74
2020-04-06 17:00:00 21.2 9 Noroeste 15 Oeste 0 -- -- 79
2020-04-06 16:00:00 20.9 9 Noroeste 21 Nordeste 0 -- -- 79
2020-04-06 15:00:00 20.5 10 Norte 18 Norte 0 -- -- 79
2020-04-06 14:00:00 21 7 Noroeste 13 Norte 0 -- -- 77
2020-04-06 13:00:00 21.2 8 Noroeste 13 Noroeste 0 -- -- 77
2020-04-06 12:00:00 20.8 6 Noroeste 10 Noroeste 0 -- -- 71
2020-04-06 11:00:00 19.9 4 Noroeste 9 Noroeste 0 -- -- 77
2020-04-06 10:00:00 19.2 3 Oeste 6 Oeste 0 -- -- 81
2020-04-06 09:00:00 17.4 3 Sudeste 9 Sur 0 -- -- 86
2020-04-06 08:00:00 15.3 7 Sur 12 Sudeste 0 -- -- 88
2020-04-06 07:00:00 15.3 8 Sur 12 Sur 0 -- -- 86
2020-04-06 06:00:00 15.1 9 Sudeste 10 Sudeste 0 -- -- 84
2020-04-06 05:00:00 15.5 9 Sudeste 12 Sudeste 0 -- -- 84
2020-04-06 04:00:00 15.7 7 Sur 10 Sudeste 0 -- -- 85
2020-04-06 03:00:00 16.9 4 Sur 8 Sur 0 -- -- 90
2020-04-06 02:00:00 17.7 3 Sudoeste 10 Sudoeste 0 -- -- 94
2020-04-06 01:00:00 17.7 5 Oeste 15 Noroeste 0 -- -- 96
2020-04-06 00:00:00 18.1 10 Noroeste 16 Noroeste 0 -- -- 96
2020-04-05 23:00:00 18.3 3 Noroeste 17 Oeste 0 -- -- 96
2020-04-05 22:00:00 18.5 5 Oeste 17 Oeste 0 -- -- 95
2020-04-05 21:00:00 18.6 6 Noroeste 15 Oeste 0 -- -- 93
2020-04-05 20:00:00 19 9 Oeste 15 Oeste 0 -- -- 89
2020-04-05 19:00:00 20.1 7 Noroeste 16 Noroeste 0 -- -- 83
2020-04-05 18:00:00 21.8 8 Noroeste 16 Noroeste 0 -- -- 73
2020-04-05 17:00:00 22.1 10 Noroeste 17 Noroeste 0 -- -- 71
2020-04-05 16:00:00 21.9 9 Noroeste 17 Noroeste 0 -- -- 73
2020-04-05 15:00:00 22.4 10 Noroeste 17 Oeste 0 -- -- 73
2020-04-05 14:00:00 21.8 9 Noroeste 16 Oeste 0 -- -- 75
2020-04-05 13:00:00 22.1 7 Oeste 13 Oeste 0 -- -- 59
2020-04-05 12:00:00 22.6 6 Oeste 10 Oeste 0 -- -- 62
2020-04-05 11:00:00 21.2 6 Oeste 12 Oeste 0 -- -- 66
2020-04-05 10:00:00 19.8 4 Oeste 15 Sudoeste 0 -- -- 72
2020-04-05 09:00:00 17.6 7 Sudoeste 18 Sudoeste 0 -- -- 85
2020-04-05 08:00:00 17 6 Sudoeste 15 Oeste 0 -- -- 90
2020-04-05 07:00:00 15.8 4 Sur 12 Oeste 0 -- -- 87
2020-04-05 06:00:00 16.9 8 Sudoeste 19 Sudoeste 0 -- -- 85
2020-04-05 05:00:00 17.2 9 Sudoeste 21 Oeste 0 -- -- 87
2020-04-05 04:00:00 15.6 4 Sur 17 Sudeste 0 -- -- 75
2020-04-05 03:00:00 16.1 11 Sudeste 15 Sudeste 0 -- -- 73
2020-04-05 02:00:00 15.9 6 Sur 9 Sudeste 0 -- -- 79
2020-04-05 01:00:00 16.3 5 Sudeste 11 Sudeste 0 -- -- 77
2020-04-05 00:00:00 16.3 9 Sudeste 14 Sudeste 0 -- -- 83
2020-04-04 23:00:00 17.3 2 Sudeste 9 Sudoeste 0 -- -- 85
2020-04-04 22:00:00 17.7 3 Sudoeste 8 Oeste 0 -- -- 85
2020-04-04 21:00:00 18.1 4 Oeste 14 Oeste 0 -- -- 79
2020-04-04 20:00:00 19.7 7 Oeste 23 Oeste 0 -- -- 74
2020-04-04 19:00:00 19 17 Sudoeste 26 Sudoeste 0 -- -- 79
2020-04-04 18:00:00 20 16 Sudoeste 26 Oeste 0 -- -- 75
2020-04-04 17:00:00 22.1 12 Oeste 26 Oeste 0 -- -- 69
2020-04-04 16:00:00 21.9 13 Oeste 24 Oeste 0 -- -- 66
2020-04-04 15:00:00 22 12 Oeste 21 Oeste 0 -- -- 61
2020-04-04 14:00:00 21.7 12 Oeste 18 Noroeste 0 -- -- 61
2020-04-04 13:00:00 21.4 10 Oeste 17 Oeste 0 -- -- 64
2020-04-04 12:00:00 20.3 9 Oeste 15 Oeste 0 -- -- 66
2020-04-04 11:00:00 19.9 8 Sudoeste 16 Sudoeste 0 -- -- 60
2020-04-04 10:00:00 20 9 Oeste 18 Oeste 0 -- -- 56
2020-04-04 09:00:00 16.9 11 Sudeste 15 Sudeste 0 -- -- 81
2020-04-04 08:00:00 15.1 9 Sudeste 14 Sudeste 0 -- -- 82
2020-04-04 07:00:00 15.2 10 Sudeste 14 Sudeste 0 -- -- 70
2020-04-04 06:00:00 15.3 11 Sudeste 14 Sudeste 0 -- -- 69
2020-04-04 05:00:00 15.9 7 Sur 13 Sudeste 0 -- -- 73
2020-04-04 04:00:00 15.9 9 Sudeste 13 Sudeste 0 -- -- 73
2020-04-04 03:00:00 16.2 9 Sudeste 15 Sudeste 0 -- -- 75
2020-04-04 02:00:00 16.4 11 Sudeste 16 Sudeste 0 -- -- 75
2020-04-04 01:00:00 16.5 12 Sudeste 18 Sudeste 0 -- -- 79
2020-04-04 00:00:00 17 8 Sudeste 14 Sudeste 0 -- -- 78
2020-04-03 23:00:00 17.6 8 Sudeste 13 Sudeste 0 -- -- 77
2020-04-03 22:00:00 17.9 9 Sudeste 15 Este 0 -- -- 77
2020-04-03 21:00:00 18.8 5 Sudeste 17 Este 0 -- -- 76
2020-04-03 20:00:00 20.2 12 Nordeste 20 Nordeste 0 -- -- 73
2020-04-03 19:00:00 21.1 4 Norte 17 Noroeste 0 -- -- 64
2020-04-03 18:00:00 22.1 12 Noroeste 17 Noroeste 0 -- -- 62
2020-04-03 17:00:00 23.3 7 Noroeste 16 Noroeste 0 -- -- 56
2020-04-03 16:00:00 23.1 5 Noroeste 17 Norte 0 -- -- 56
2020-04-03 15:00:00 21.7 6 Norte 18 Norte 0 -- -- 64
2020-04-03 14:00:00 20.1 6 Norte 17 Noroeste 0 -- -- 70
2020-04-03 13:00:00 19.8 8 Noroeste 15 Noroeste 0 -- -- 69
2020-04-03 12:00:00 18.5 5 Oeste 26 Sudoeste 0 -- -- 71
2020-04-03 11:00:00 17.9 8 Sudoeste 24 Oeste 0 -- -- 71
2020-04-03 10:00:00 18.3 13 Nordeste 24 Este 0 -- -- 68
2020-04-03 09:00:00 15.3 4 Sur 8 Sudoeste 0 -- -- 84
2020-04-03 08:00:00 14 6 Sur 20 Sudeste 0 -- -- 82
2020-04-03 07:00:00 13.7 11 Sudeste 17 Sudeste 0 -- -- 81
2020-04-03 06:00:00 14.1 8 Sudeste 14 Sudeste 0 -- -- 82
2020-04-03 05:00:00 14.4 8 Sudeste 13 Sudeste 0 -- -- 80
2020-04-03 04:00:00 15.9 4 Sudoeste 9 Sudeste 0 -- -- 87
2020-04-03 03:00:00 15.3 5 Sur 13 Sudeste 0 -- -- 80
2020-04-03 02:00:00 15.9 4 Sudoeste 12 Sudoeste 0 -- -- 88
2020-04-03 01:00:00 16.3 4 Sudoeste 8 Sudoeste 0 -- -- 88
2020-04-03 00:00:00 16.2 3 Sudoeste 13 Sudoeste 0 -- -- 86
2020-04-02 23:00:00 16.4 3 Oeste 10 Noroeste 0 -- -- 85
2020-04-02 22:00:00 16.3 3 Noroeste 9 Noroeste 0 -- -- 84
2020-04-02 21:00:00 16.7 9 Sudoeste 14 Sudoeste 0 -- -- 82
2020-04-02 20:00:00 17.6 6 Oeste 19 Oeste 0 -- -- 76
2020-04-02 19:00:00 18.6 9 Oeste 15 Sudoeste 0 -- -- 68
2020-04-02 18:00:00 19.2 7 Oeste 14 Oeste 0 -- -- 65
2020-04-02 17:00:00 20.4 8 Oeste 17 Noroeste 0 -- -- 57
2020-04-02 16:00:00 20.9 8 Noroeste 19 Oeste 0 -- -- 63
2020-04-02 15:00:00 20.6 9 Oeste 18 Oeste 0 -- -- 68
2020-04-02 14:00:00 19.2 12 Sudoeste 20 Oeste 0 -- -- 66
2020-04-02 13:00:00 19.3 9 Oeste 15 Oeste 0 -- -- 65
2020-04-02 12:00:00 18.3 10 Oeste 15 Oeste 0 -- -- 65
2020-04-02 11:00:00 18 8 Noroeste 10 Noroeste 0 -- -- 62
2020-04-02 10:00:00 16.3 7 Sudoeste 11 Sudoeste 0 -- -- 67
2020-04-02 09:00:00 14.6 10 Sudeste 19 Este 0 -- -- 63
2020-04-02 08:00:00 11.8 13 Sudeste 19 Sudeste 0 -- -- 66
2020-04-02 07:00:00 12.1 10 Sudeste 19 Sudeste 0 -- -- 72
2020-04-02 06:00:00 12.7 16 Sudeste 24 Sudeste 0 -- -- 79
2020-04-02 05:00:00 12.7 15 Sudeste 20 Sudeste 0 -- -- 78
2020-04-02 04:00:00 13 12 Sudeste 14 Sudeste 0 -- -- 81
2020-04-02 03:00:00 13.1 12 Sudeste 15 Sudeste 0 -- -- 82
2020-04-02 02:00:00 13.5 12 Sudeste 17 Sudeste 0 -- -- 82
2020-04-02 01:00:00 13.7 11 Sudeste 15 Sudeste 0 -- -- 83
2020-04-02 00:00:00 14.3 11 Sudeste 14 Sudeste 0 -- -- 81
2020-04-01 23:00:00 15 10 Sudeste 13 Este 0 -- -- 83
2020-04-01 22:00:00 15.9 8 Este 12 Este 0 -- -- 82
2020-04-01 21:00:00 16.4 8 Nordeste 14 Nordeste 0 -- -- 79
2020-04-01 20:00:00 17.3 10 Nordeste 19 Este 0 -- -- 75
2020-04-01 19:00:00 18.6 9 Norte 19 Norte 0 -- -- 65
2020-04-01 18:00:00 19.9 10 Norte 22 Norte 0 -- -- 63
2020-04-01 17:00:00 20.2 10 Norte 20 Norte 0 -- -- 62
2020-04-01 16:00:00 19.7 12 Norte 24 Noroeste 0 -- -- 65
2020-04-01 15:00:00 19 13 Norte 22 Noroeste 0 -- -- 68
2020-04-01 14:00:00 18 9 Norte 19 Noroeste 0 -- -- 72
2020-04-01 13:00:00 18.4 12 Norte 19 Norte 0 -- -- 71
2020-04-01 12:00:00 17.8 7 Norte 14 Nordeste 0 -- -- 72
2020-04-01 11:00:00 17.2 5 Noroeste 12 Noroeste 0 -- -- 75
2020-04-01 10:00:00 17.4 6 Nordeste 13 Sudeste 0 -- -- 74
2020-04-01 09:00:00 14.5 9 Sudeste 16 Sudeste 0 -- -- 81
2020-04-01 08:00:00 12.9 12 Sudeste 17 Sudeste 0 -- -- 83
2020-04-01 07:00:00 14.8 9 Sudeste 14 Este 0 -- -- 84
2020-04-01 06:00:00 15.5 7 Este 10 Este 0 -- -- 86
2020-04-01 05:00:00 15.2 5 Sudeste 9 Sudeste 0 -- -- 84
2020-04-01 04:00:00 15.7 2 Nordeste 9 Sudeste 0 -- -- 85
2020-04-01 03:00:00 15.8 3 Este 8 Sudeste 0 -- -- 84
2020-04-01 02:00:00 15.8 3 Sudeste 8 Sudeste 0 -- -- 82
2020-04-01 01:00:00 15.9 4 Nordeste 8 Nordeste 0 -- -- 85
2020-04-01 00:00:00 16.2 4 Norte 9 Noroeste 0 -- -- 84
2020-03-31 23:00:00 16.5 5 Norte 9 Norte 0 -- -- 82
2020-03-31 22:00:00 16.6 4 Noroeste 7 Noroeste 0 -- -- 81
2020-03-31 21:00:00 16.6 3 Norte 8 Noroeste 0 -- -- 81
2020-03-31 20:00:00 17.2 6 Noroeste 13 Oeste 0 -- -- 78
2020-03-31 19:00:00 18.2 5 Noroeste 13 Oeste 0 -- -- 75
2020-03-31 18:00:00 18.1 8 Noroeste 17 Oeste 0 -- -- 73
2020-03-31 17:00:00 19.5 10 Noroeste 17 Noroeste 0 -- -- 69
2020-03-31 16:00:00 20.4 10 Oeste 17 Oeste 0 -- -- 65
2020-03-31 15:00:00 19.7 12 Noroeste 18 Noroeste 0 -- -- 67
2020-03-31 14:00:00 19.1 9 Noroeste 15 Noroeste 0 -- -- 71
2020-03-31 13:00:00 19.2 9 Noroeste 15 Noroeste 0 -- -- 73
2020-03-31 12:00:00 18.6 6 Noroeste 13 Noroeste 0 -- -- 76
2020-03-31 11:00:00 18.1 7 Noroeste 14 Noroeste 0 -- -- 80
2020-03-31 10:00:00 16.5 2 Norte 13 Sudoeste 0 -- -- 86
2020-03-31 09:00:00 16.1 5 Sudoeste 13 Oeste 0 -- -- 83
2020-03-31 08:00:00 15.8 6 Sudoeste 15 Sudoeste 0 -- -- 88
2020-03-31 07:00:00 15.8 9 Sudoeste 17 Sudoeste 0 -- -- 91
2020-03-31 06:00:00 15.9 4 Sudoeste 14 Norte 0 -- -- 92
2020-03-31 05:00:00 15.6 6 Noroeste 18 Noroeste 0 -- -- 96
2020-03-31 04:00:00 16.5 6 Noroeste 16 Oeste 0 -- -- 89
2020-03-31 03:00:00 16.3 5 Noroeste 11 Noroeste 0 -- -- 77
2020-03-31 02:00:00 16.1 6 Sur 12 Sudoeste 0 -- -- 78
2020-03-31 01:00:00 16.6 8 Oeste 12 Oeste 0 -- -- 78
2020-03-31 00:00:00 16.4 3 Sudoeste 16 Oeste 0 -- -- 80
2020-03-30 23:00:00 16.8 6 Oeste 17 Oeste 0 -- -- 85
2020-03-30 22:00:00 16.8 4 Nordeste 18 Noroeste 0 -- -- 86
2020-03-30 21:00:00 16.8 4 Este 24 Sudoeste 0 -- -- 92
2020-03-30 20:00:00 16.7 15 Sudoeste 30 Sudoeste 0 -- -- 91
2020-03-30 19:00:00 17.2 7 Nordeste 27 Oeste 0 -- -- 85
2020-03-30 18:00:00 17.6 8 Noroeste 21 Noroeste 0 -- -- 80
2020-03-30 17:00:00 19 10 Oeste 19 Oeste 0 -- -- 74
2020-03-30 16:00:00 18.7 9 Noroeste 19 Noroeste 0 -- -- 76
2020-03-30 15:00:00 19.3 10 Oeste 18 Oeste 0 -- -- 70
2020-03-30 14:00:00 19.1 10 Oeste 18 Oeste 0 -- -- 70
2020-03-30 13:00:00 18.6 8 Oeste 13 Oeste 0 -- -- 68
2020-03-30 12:00:00 17.9 6 Oeste 11 Oeste 0 -- -- 74
2020-03-30 11:00:00 17.3 5 Oeste 8 Oeste 0 -- -- 76
2020-03-30 10:00:00 16.5 4 Oeste 13 Sudoeste 0 -- -- 78
2020-03-30 09:00:00 14.4 5 Sur 11 Sur 0 -- -- 84
2020-03-30 08:00:00 13.7 7 Sur 12 Sur 0 -- -- 85
2020-03-30 07:00:00 12.9 8 Sur 12 Sudeste 0 -- -- 86
2020-03-30 06:00:00 12.4 9 Sudeste 13 Sudeste 0 -- -- 84
2020-03-30 05:00:00 12.5 9 Sudeste 13 Sur 0 -- -- 84
2020-03-30 04:00:00 12.9 8 Sur 12 Sur 0 -- -- 83
2020-03-30 03:00:00 13.3 9 Sudeste 13 Sur 0 -- -- 81
2020-03-30 02:00:00 13.1 8 Sur 12 Sudeste 0 -- -- 80
2020-03-30 01:00:00 13 9 Sudeste 12 Sudeste 0 -- -- 77
2020-03-30 00:00:00 13.4 8 Sur 11 Sur 0 -- -- 83
2020-03-29 23:00:00 13.8 8 Sur 11 Sudeste 0 -- -- 81
2020-03-29 22:00:00 14.3 7 Sudeste 10 Sur 0 -- -- 80
2020-03-29 21:00:00 15.5 3 Oeste 11 Oeste 0 -- -- 80
2020-03-29 20:00:00 17.2 7 Oeste 15 Oeste 0 -- -- 73
2020-03-29 19:00:00 17.2 8 Oeste 17 Oeste 0 -- -- 72
2020-03-29 18:00:00 17.4 9 Oeste 18 Oeste 0 -- -- 73
2020-03-29 17:00:00 19.2 10 Oeste 19 Oeste 0 -- -- 66
2020-03-29 16:00:00 19 11 Oeste 19 Oeste 0 -- -- 61
2020-03-29 15:00:00 18.9 9 Oeste 17 Oeste 0 -- -- 65
2020-03-29 14:00:00 18.5 7 Oeste 13 Noroeste 0 -- -- 67
2020-03-29 13:00:00 18.6 7 Noroeste 14 Oeste 0 -- -- 60
2020-03-29 12:00:00 17.8 5 Noroeste 10 Oeste 0 -- -- 59
2020-03-29 11:00:00 17.3 5 Oeste 8 Sudoeste 0 -- -- 54
2020-03-29 10:00:00 16.5 4 Oeste 10 Sudeste 0 -- -- 60
2020-03-29 09:00:00 13.2 10 Sudeste 15 Sudeste 0 -- -- 73
2020-03-29 08:00:00 11.8 11 Sudeste 16 Sudeste 0 -- -- 76
2020-03-29 07:00:00 12.2 8 Sudeste 13 Sudeste 0 -- -- 76
2020-03-29 06:00:00 12.2 8 Sur 13 Sudeste 0 -- -- 83
2020-03-29 05:00:00 12.3 10 Sudeste 13 Sudeste 0 -- -- 85
2020-03-29 04:00:00 13.4 6 Sudeste 10 Sur 0 -- -- 86
2020-03-29 00:00:00 14.3 5 Sur 9 Sudeste 0 -- -- 87
2020-03-28 23:00:00 14.9 2 Sur 6 Sudeste 0.2 -- -- 88
2020-03-28 22:00:00 14.7 4 Sudeste 5 Sudeste 0 -- -- 85
2020-03-28 21:00:00 15.1 2 Sudeste 6 Nordeste 0 -- -- 84
2020-03-28 20:00:00 15.1 5 Nordeste 10 Norte 0 -- -- 84
2020-03-28 19:00:00 17.5 7 Noroeste 14 Noroeste 0 -- -- 75
2020-03-28 18:00:00 16.8 8 Noroeste 16 Noroeste 0 -- -- 78
2020-03-28 17:00:00 17 8 Noroeste 15 Norte 0 -- -- 75
2020-03-28 16:00:00 17.2 9 Norte 18 Norte 0 -- -- 73
2020-03-28 15:00:00 18.6 11 Noroeste 19 Noroeste 0 -- -- 74
2020-03-28 14:00:00 17.8 11 Noroeste 19 Noroeste 0 -- -- 75
2020-03-28 13:00:00 16.8 7 Noroeste 15 Oeste 0 -- -- 77
2020-03-28 12:00:00 16.6 9 Noroeste 14 Oeste 0 -- -- 82
2020-03-28 11:00:00 16.3 5 Noroeste 11 Noroeste 0 -- -- 79
2020-03-28 10:00:00 16.6 4 Noroeste 9 Sur 0 -- -- 72
2020-03-28 09:00:00 13.7 6 Este 23 Este 0 -- -- 89
2020-03-28 08:00:00 12.5 5 Sudeste 10 Sur 0 -- -- 85
2020-03-28 07:00:00 12.8 6 Sur 11 Sudeste 0 -- -- 84
2020-03-28 06:00:00 12.4 8 Sudeste 13 Sudeste 0 -- -- 92
2020-03-28 05:00:00 13.3 5 Sur 12 Sudoeste 0 -- -- 89
2020-03-28 04:00:00 12.9 5 Sur 10 Oeste 0 -- -- 86
2020-03-28 03:00:00 13.4 6 Sudoeste 17 Sudoeste 0 -- -- 82
2020-03-28 02:00:00 13.6 8 Sudoeste 19 Sudoeste 0.2 -- -- 87
2020-03-28 01:00:00 13.5 6 Sudoeste 17 Oeste 0 -- -- 94
2020-03-28 00:00:00 13.5 8 Sudoeste 27 Norte 2.6 -- -- 96
2020-03-27 23:00:00 14.7 11 Noroeste 26 Noroeste 0 -- -- 89
2020-03-27 22:00:00 14.3 13 Noroeste 26 Noroeste 0.4 -- -- 89
2020-03-27 21:00:00 14.5 12 Noroeste 26 Noroeste 0 -- -- 91
2020-03-27 20:00:00 15 16 Noroeste 32 Oeste 0 -- -- 89
2020-03-27 19:00:00 15.1 14 Noroeste 25 Noroeste 0 -- -- 89
2020-03-27 18:00:00 15 15 Noroeste 32 Oeste 0.2 -- -- 89
2020-03-27 17:00:00 17.7 13 Noroeste 25 Oeste 0 -- -- 74
2020-03-27 16:00:00 18.8 15 Noroeste 24 Noroeste 0 -- -- 69
2020-03-27 15:00:00 19 14 Noroeste 26 Noroeste 0 -- -- 70
2020-03-27 14:00:00 18.7 14 Noroeste 20 Noroeste 0 -- -- 70
2020-03-27 13:00:00 18.2 9 Oeste 16 Oeste 0 -- -- 72
2020-03-27 12:00:00 18.1 9 Oeste 17 Oeste 0 -- -- 74
2020-03-27 11:00:00 17.1 7 Oeste 15 Oeste 0 -- -- 77
2020-03-27 10:00:00 16.5 5 Oeste 15 Noroeste 0 -- -- 82
2020-03-27 09:00:00 15.2 11 Oeste 21 Sudoeste 0 -- -- 84
2020-03-27 08:00:00 14.2 3 Sudoeste 12 Sudoeste 0 -- -- 86
2020-03-27 07:00:00 13.6 4 Sudoeste 10 Sudoeste 0 -- -- 86
2020-03-27 06:00:00 13.4 6 Sudoeste 9 Sudoeste 0 -- -- 90
2020-03-27 05:00:00 13.4 0 Calma 8 Sudeste 0 -- -- 91
2020-03-27 04:00:00 13.1 5 Sudeste 10 Este 3.4 -- -- 93
2020-03-27 03:00:00 13.7 8 Sudoeste 15 Sudoeste 1 -- -- 87
2020-03-27 02:00:00 14.6 7 Sudoeste 14 Noroeste 0 -- -- 82
2020-03-27 01:00:00 14.8 8 Noroeste 15 Noroeste 0 -- -- 83
2020-03-27 00:00:00 14.9 6 Noroeste 13 Oeste 0 -- -- 80
2020-03-26 23:00:00 15 5 Noroeste 9 Noroeste 0 -- -- 79
2020-03-26 22:00:00 14.9 6 Noroeste 13 Noroeste 0 -- -- 78
2020-03-26 21:00:00 15.1 6 Noroeste 11 Oeste 0 -- -- 79
2020-03-26 20:00:00 15.1 6 Noroeste 12 Noroeste 0 -- -- 77
2020-03-26 19:00:00 15.8 7 Norte 17 Norte 0 -- -- 73
2020-03-26 18:00:00 17.3 8 Norte 19 Noroeste 0 -- -- 69
2020-03-26 17:00:00 18 10 Noroeste 19 Noroeste 0 -- -- 68
2020-03-26 16:00:00 18.4 10 Noroeste 17 Norte 0 -- -- 73
2020-03-26 15:00:00 18.7 9 Oeste 15 Oeste 0 -- -- 67
2020-03-26 14:00:00 18.1 8 Noroeste 12 Noroeste 0 -- -- 70
2020-03-26 13:00:00 17.2 6 Oeste 12 Oeste 0 -- -- 71
2020-03-26 12:00:00 17 6 Noroeste 11 Noroeste 0 -- -- 70
2020-03-26 11:00:00 16.5 6 Noroeste 9 Oeste 0 -- -- 69
2020-03-26 10:00:00 16 3 Nordeste 10 Norte 0 -- -- 69
2020-03-26 09:00:00 15.1 2 Sudeste 11 Sudeste 0 -- -- 70
2020-03-26 08:00:00 12.9 8 Sudeste 15 Sudeste 0 -- -- 78
2020-03-26 07:00:00 11.7 10 Sudeste 17 Sudeste 0 -- -- 79
2020-03-26 06:00:00 11.5 12 Sudeste 17 Sudeste 0 -- -- 79
2020-03-26 05:00:00 11.6 12 Sudeste 16 Sudeste 0 -- -- 79
2020-03-26 04:00:00 12.6 8 Sudeste 18 Sudeste 0 -- -- 77
2020-03-26 03:00:00 12.7 10 Sudeste 18 Sudeste 0 -- -- 78
2020-03-26 02:00:00 13.6 12 Sudeste 19 Sudeste 0 -- -- 79
2020-03-26 01:00:00 14.1 8 Sudeste 12 Sudeste 0 -- -- 80
2020-03-26 00:00:00 13.9 8 Sudeste 13 Sudeste 0 -- -- 81
2020-03-25 23:00:00 13.5 6 Sudeste 14 Sudeste 0 -- -- 82
2020-03-25 22:00:00 13.8 12 Sudeste 14 Sudeste 0 -- -- 82
2020-03-25 21:00:00 14.1 10 Este 12 Este 0 -- -- 84
2020-03-25 20:00:00 15 5 Nordeste 9 Nordeste 0 -- -- 79
2020-03-25 19:00:00 15.6 5 Norte 13 Norte 0 -- -- 76
2020-03-25 18:00:00 16.3 8 Noroeste 14 Norte 0 -- -- 72
2020-03-25 17:00:00 16.9 8 Nordeste 21 Nordeste 0 -- -- 67
2020-03-25 16:00:00 16.9 14 Nordeste 22 Norte 0 -- -- 74
2020-03-25 15:00:00 17.4 11 Norte 23 Norte 0 -- -- 71
2020-03-25 14:00:00 17.5 11 Norte 21 Noroeste 0 -- -- 73
2020-03-25 13:00:00 18.4 10 Norte 19 Norte 0 -- -- 68
2020-03-25 12:00:00 17.6 11 Norte 19 Norte 0 -- -- 73
2020-03-25 11:00:00 16.9 8 Norte 13 Norte 0 -- -- 76
2020-03-25 10:00:00 16.6 6 Nordeste 10 Nordeste 0 -- -- 77
2020-03-25 09:00:00 15.3 3 Sudeste 8 Sudeste 0 -- -- 81
2020-03-25 08:00:00 13.8 5 Sudeste 13 Sudeste 0 -- -- 88
2020-03-25 07:00:00 13.2 9 Sudeste 13 Sudeste 0.2 -- -- 89
2020-03-25 06:00:00 13.5 7 Sudeste 10 Sudeste 0 -- -- 87
2020-03-25 05:00:00 13.2 6 Sudeste 9 Sudeste 0 -- -- 90
2020-03-25 04:00:00 13.1 6 Sudeste 13 Oeste 0.2 -- -- 92
2020-03-25 03:00:00 13.6 6 Oeste 18 Este 1.8 -- -- 88
2020-03-25 02:00:00 13.6 4 Sur 9 Sur 0 -- -- 89
2020-03-25 01:00:00 13.3 4 Sur 22 Este 0.8 -- -- 89
2020-03-25 00:00:00 13.9 4 Este 17 Oeste 0.8 -- -- 83
2020-03-24 23:00:00 14.6 6 Sudoeste 16 Sudoeste 0 -- -- 77
2020-03-24 22:00:00 14.3 4 Sudoeste 13 Oeste 0 -- -- 83
2020-03-24 21:00:00 14.4 3 Oeste 10 Oeste 0 -- -- 82
2020-03-24 20:00:00 14.5 5 Noroeste 19 Noroeste 0 -- -- 82
2020-03-24 19:00:00 15.6 10 Noroeste 20 Noroeste 0 -- -- 78
2020-03-24 18:00:00 16.1 9 Noroeste 14 Oeste 0 -- -- 78
2020-03-24 17:00:00 16.8 6 Oeste 12 Noroeste 0 -- -- 76
2020-03-24 16:00:00 16.8 8 Noroeste 14 Oeste 0 -- -- 74
2020-03-24 15:00:00 17.6 9 Noroeste 18 Norte 0 -- -- 67
2020-03-24 14:00:00 16.3 12 Norte 26 Norte 0 -- -- 83
2020-03-24 13:00:00 17.4 13 Noroeste 21 Noroeste 0 -- -- 78
2020-03-24 12:00:00 16.9 13 Noroeste 23 Noroeste 0 -- -- 79
2020-03-24 11:00:00 16.2 12 Noroeste 21 Oeste 0 -- -- 80
2020-03-24 10:00:00 15.7 10 Oeste 19 Noroeste 0 -- -- 81
2020-03-24 09:00:00 14.8 5 Sudoeste 23 Noroeste 0 -- -- 86
2020-03-24 08:00:00 14.7 10 Noroeste 21 Oeste 0 -- -- 84
2020-03-24 07:00:00 14.2 12 Noroeste 22 Norte 1.4 -- -- 89
2020-03-24 06:00:00 14.6 6 Noroeste 19 Noroeste 0 -- -- 83
2020-03-24 05:00:00 14.7 11 Noroeste 20 Noroeste 0 -- -- 86
2020-03-24 04:00:00 14.5 11 Noroeste 23 Noroeste 0 -- -- 89
2020-03-24 03:00:00 13.7 8 Sudoeste 37 Oeste 0.6 -- -- 95
2020-03-24 02:00:00 14.6 14 Noroeste 26 Noroeste 0 -- -- 89
2020-03-24 01:00:00 14.7 16 Noroeste 24 Noroeste 0 -- -- 86
2020-03-24 00:00:00 14.6 12 Noroeste 28 Noroeste 0 -- -- 89
2020-03-23 23:00:00 14.7 13 Noroeste 22 Noroeste 0 -- -- 87
2020-03-23 22:00:00 14.6 12 Noroeste 27 Noroeste 0 -- -- 81
2020-03-23 21:00:00 14.5 12 Noroeste 31 Noroeste 0 -- -- 87
2020-03-23 20:00:00 14.1 12 Noroeste 33 Noroeste 1.4 -- -- 91
2020-03-23 19:00:00 15.2 13 Noroeste 28 Noroeste 0 -- -- 80
2020-03-23 18:00:00 15.1 12 Noroeste 29 Noroeste 0.2 -- -- 81
2020-03-23 17:00:00 14.1 7 Oeste 22 Noroeste 0 -- -- 91
2020-03-23 16:00:00 14.4 13 Noroeste 28 Oeste 0.2 -- -- 91
2020-03-23 15:00:00 13.6 11 Noroeste 29 Norte 0.6 -- -- 94
2020-03-23 14:00:00 14.2 13 Noroeste 30 Noroeste 0 -- -- 90
2020-03-23 13:00:00 13 11 Noroeste 32 Noroeste 3 -- -- 94
2020-03-23 12:00:00 13.2 15 Noroeste 29 Noroeste 0.8 -- -- 92
2020-03-23 11:00:00 14.8 15 Norte 30 Noroeste 0 -- -- 74
2020-03-23 10:00:00 14.4 16 Norte 43 Noroeste 0 -- -- 78
2020-03-23 09:00:00 13.7 26 Noroeste 42 Oeste 0 -- -- 83
2020-03-23 08:00:00 13.8 23 Noroeste 43 Noroeste 0 -- -- 84
2020-03-23 07:00:00 13.8 22 Noroeste 46 Noroeste 0 -- -- 78
2020-03-23 06:00:00 13 23 Noroeste 46 Noroeste 0.8 -- -- 84
2020-03-23 05:00:00 13.4 24 Noroeste 63 Noroeste 0 -- -- 77
2020-03-23 04:00:00 13.2 31 Noroeste 51 Noroeste 0.4 -- -- 83
2020-03-23 03:00:00 12.7 33 Noroeste 64 Oeste 0.4 -- -- 86
2020-03-23 02:00:00 14 34 Noroeste 55 Noroeste 0 -- -- 75
2020-03-23 01:00:00 14 27 Noroeste 50 Noroeste 0 -- -- 81
2020-03-23 00:00:00 13.8 27 Noroeste 60 Noroeste 0.8 -- -- 83
2020-03-22 23:00:00 13.7 36 Noroeste 71 Noroeste 0.2 -- -- 81
2020-03-22 22:00:00 14 27 Noroeste 55 Norte 0 -- -- 89
2020-03-22 21:00:00 13.9 20 Noroeste 57 Oeste 0 -- -- 84
2020-03-22 20:00:00 14.1 18 Noroeste 40 Oeste 2 -- -- 86
2020-03-22 19:00:00 14.2 14 Noroeste 43 Sudoeste 0 -- -- 87
2020-03-22 18:00:00 12.7 18 Sudoeste 36 Sudoeste 2.4 -- -- 99
2020-03-22 17:00:00 12.6 8 Oeste 56 Oeste 0.8 -- -- 100
2020-03-22 16:00:00 13.2 13 Oeste 51 Noroeste 3 -- -- 99
2020-03-22 15:00:00 17.7 10 Noroeste 35 Sudoeste 0 -- -- 59
2020-03-22 14:00:00 18.5 10 Noroeste 28 Sudoeste 0 -- -- 59
2020-03-22 13:00:00 18.3 8 Oeste 27 Noroeste 0 -- -- 60
2020-03-22 12:00:00 18 6 Noroeste 27 Oeste 0 -- -- 55
2020-03-22 11:00:00 15.1 8 Sudoeste 37 Noroeste 0 -- -- 73
2020-03-22 10:00:00 16.2 9 Oeste 26 Oeste 0 -- -- 62
2020-03-22 09:00:00 14.2 13 Sudoeste 26 Sudoeste 0 -- -- 72
2020-03-22 08:00:00 13.4 6 Norte 34 Noroeste 0 -- -- 77
2020-03-22 07:00:00 13.7 15 Noroeste 33 Noroeste 0 -- -- 86
2020-03-22 06:00:00 13.8 13 Noroeste 23 Noroeste 0 -- -- 75
2020-03-22 05:00:00 13.9 13 Noroeste 27 Oeste 0 -- -- 74
2020-03-22 04:00:00 14.1 13 Noroeste 24 Oeste 0 -- -- 82
2020-03-22 03:00:00 14.4 14 Noroeste 29 Noroeste 0 -- -- 69
2020-03-22 02:00:00 14.5 14 Noroeste 27 Noroeste 0 -- -- 63
2020-03-22 01:00:00 14.6 15 Noroeste 27 Noroeste 0 -- -- 59
2020-03-22 00:00:00 14.7 13 Noroeste 28 Noroeste 0 -- -- 66
2020-03-21 23:00:00 14.6 12 Noroeste 24 Noroeste 0 -- -- 65
2020-03-21 22:00:00 14.7 13 Noroeste 26 Noroeste 0 -- -- 64
2020-03-21 21:00:00 14.4 12 Norte 22 Norte 0 -- -- 76
2020-03-21 20:00:00 14.1 11 Norte 24 Noroeste 0 -- -- 81
2020-03-21 19:00:00 15.1 11 Noroeste 25 Noroeste 0 -- -- 70
2020-03-21 18:00:00 15.8 13 Noroeste 24 Noroeste 0 -- -- 66
2020-03-21 17:00:00 17.7 12 Noroeste 26 Noroeste 0 -- -- 58
2020-03-21 16:00:00 17.9 15 Noroeste 21 Noroeste 0 -- -- 58
2020-03-21 15:00:00 17.6 12 Noroeste 18 Noroeste 0 -- -- 59
2020-03-21 14:00:00 17.3 10 Noroeste 20 Norte 0 -- -- 61
2020-03-21 13:00:00 17.3 9 Noroeste 17 Noroeste 0 -- -- 58
2020-03-21 12:00:00 16.6 8 Noroeste 14 Oeste 0 -- -- 63
2020-03-21 11:00:00 16.3 6 Norte 15 Noroeste 0 -- -- 63
2020-03-21 10:00:00 15.4 6 Norte 13 Norte 0 -- -- 65
2020-03-21 09:00:00 13.8 10 Este 29 Nordeste 0 -- -- 74
2020-03-21 08:00:00 13.8 13 Nordeste 26 Norte 0 -- -- 69
2020-03-21 07:00:00 13.3 9 Nordeste 22 Nordeste 0 -- -- 71
2020-03-21 06:00:00 13.4 9 Nordeste 22 Este 0 -- -- 73
2020-03-21 05:00:00 13.6 12 Nordeste 23 Nordeste 0 -- -- 75
2020-03-21 04:00:00 13.7 9 Nordeste 22 Nordeste 0 -- -- 73
2020-03-21 03:00:00 13.9 10 Nordeste 22 Nordeste 0 -- -- 76
2020-03-21 02:00:00 14 12 Nordeste 20 Nordeste 0 -- -- 80
2020-03-21 01:00:00 14.1 12 Nordeste 22 Nordeste 0 -- -- 81
2020-03-21 00:00:00 14.2 14 Nordeste 21 Nordeste 0 -- -- 86
2020-03-20 23:00:00 13.9 6 Norte 13 Norte 0.6 -- -- 94
2020-03-20 22:00:00 14.1 3 Nordeste 10 Noroeste 0 -- -- 94
2020-03-20 21:00:00 14.1 2 Norte 10 Sudeste 0 -- -- 93
2020-03-20 20:00:00 14 5 Sudoeste 7 Sudoeste 0.2 -- -- 94
2020-03-20 19:00:00 13.8 8 Nordeste 20 Norte 1.4 -- -- 96
2020-03-20 18:00:00 14.9 4 Este 15 Este 0 -- -- 91
2020-03-20 17:00:00 15 8 Nordeste 22 Norte 0.4 -- -- 93
2020-03-20 16:00:00 16.6 10 Norte 21 Norte 0.2 -- -- 91
2020-03-20 15:00:00 19 12 Noroeste 17 Noroeste 0 -- -- 61
2020-03-20 14:00:00 17.7 9 Oeste 17 Noroeste 0 -- -- 67
2020-03-20 13:00:00 18 10 Norte 21 Norte 0 -- -- 65
2020-03-20 12:00:00 16.9 11 Norte 20 Norte 0.2 -- -- 73
2020-03-20 11:00:00 16.7 7 Noroeste 19 Norte 0 -- -- 75
2020-03-20 10:00:00 15.9 10 Noroeste 19 Noroeste 0 -- -- 75
2020-03-20 09:00:00 15.3 11 Noroeste 18 Noroeste 0 -- -- 84
2020-03-20 08:00:00 14.5 4 Noroeste 26 Norte 0 -- -- 84
2020-03-20 07:00:00 15.1 7 Noroeste 14 Noroeste 0 -- -- 75
2020-03-20 06:00:00 15 7 Noroeste 20 Noroeste 0.2 -- -- 81
2020-03-20 05:00:00 15.1 13 Norte 23 Noroeste 0 -- -- 88
2020-03-20 04:00:00 15.2 10 Noroeste 18 Oeste 0 -- -- 83
2020-03-20 03:00:00 15 9 Noroeste 19 Noroeste 0 -- -- 86
2020-03-20 02:00:00 15.2 11 Noroeste 18 Noroeste 0 -- -- 87
2020-03-20 01:00:00 15.1 8 Noroeste 15 Noroeste 0 -- -- 86
2020-03-20 00:00:00 15.4 8 Norte 18 Noroeste 0 -- -- 87
2020-03-19 23:00:00 15.3 9 Norte 20 Norte 0 -- -- 88
2020-03-19 22:00:00 15.2 9 Noroeste 24 Noroeste 0.2 -- -- 92
2020-03-19 21:00:00 15.7 9 Noroeste 15 Noroeste 0 -- -- 87
2020-03-19 20:00:00 15.8 9 Norte 23 Norte 0 -- -- 88
2020-03-19 19:00:00 16.3 11 Norte 20 Norte 0 -- -- 87
2020-03-19 18:00:00 17 11 Norte 23 Norte 0 -- -- 84
2020-03-19 17:00:00 16.7 15 Norte 29 Norte 0 -- -- 87
2020-03-19 16:00:00 17.3 15 Norte 28 Norte 0 -- -- 85
2020-03-19 15:00:00 16.5 14 Norte 29 Norte 0.4 -- -- 90
2020-03-19 14:00:00 17.2 12 Norte 23 Norte 0 -- -- 84
2020-03-19 13:00:00 17 13 Norte 32 Noroeste 0 -- -- 89
2020-03-19 12:00:00 16.2 14 Noroeste 26 Noroeste 0.2 -- -- 91
2020-03-19 11:00:00 15.8 10 Noroeste 23 Oeste 0.2 -- -- 93
2020-03-19 10:00:00 15.5 12 Noroeste 28 Noroeste 0.2 -- -- 94
2020-03-19 09:00:00 15.1 13 Noroeste 24 Noroeste 0.2 -- -- 88
2020-03-19 08:00:00 14.6 9 Noroeste 26 Sudoeste 0.4 -- -- 84
2020-03-19 07:00:00 15.1 9 Noroeste 30 Noroeste 0 -- -- 85
2020-03-19 06:00:00 14.8 11 Noroeste 32 Noroeste 0 -- -- 84
2020-03-19 05:00:00 14.6 12 Oeste 30 Oeste 0 -- -- 86
2020-03-19 04:00:00 14.5 17 Noroeste 28 Noroeste 0 -- -- 89
2020-03-19 03:00:00 14.9 18 Noroeste 30 Oeste 0 -- -- 80
2020-03-19 02:00:00 15 18 Noroeste 33 Noroeste 0 -- -- 76
2020-03-19 01:00:00 15 15 Noroeste 32 Noroeste 0 -- -- 79
2020-03-19 00:00:00 15 17 Noroeste 27 Noroeste 0 -- -- 74
2020-03-18 23:00:00 14.7 13 Noroeste 27 Noroeste 0 -- -- 80
2020-03-18 22:00:00 14.7 10 Noroeste 24 Noroeste 0 -- -- 76
2020-03-18 21:00:00 14.9 11 Noroeste 23 Noroeste 0 -- -- 75
2020-03-18 20:00:00 15.1 14 Noroeste 27 Oeste 0 -- -- 72
2020-03-18 19:00:00 15.3 15 Noroeste 31 Noroeste 0 -- -- 72
2020-03-18 18:00:00 15.3 16 Noroeste 31 Noroeste 0 -- -- 75
2020-03-18 17:00:00 16.4 15 Noroeste 26 Norte 0 -- -- 68
2020-03-18 16:00:00 15.3 18 Norte 29 Norte 0 -- -- 75
2020-03-18 15:00:00 17.3 15 Noroeste 28 Noroeste 0 -- -- 65
2020-03-18 14:00:00 16.1 14 Noroeste 24 Noroeste 0 -- -- 70
2020-03-18 13:00:00 14.5 10 Oeste 25 Oeste 0.2 -- -- 81
2020-03-18 12:00:00 14.5 12 Noroeste 27 Oeste 0 -- -- 80
2020-03-18 11:00:00 15.9 10 Oeste 32 Oeste 0 -- -- 69
2020-03-18 10:00:00 14.7 10 Oeste 19 Sudoeste 0 -- -- 73
2020-03-18 09:00:00 13.9 6 Oeste 24 Noroeste 0 -- -- 79
2020-03-18 08:00:00 13.6 9 Noroeste 19 Noroeste 0 -- -- 78
2020-03-18 07:00:00 13.2 7 Noroeste 26 Norte 0 -- -- 75
2020-03-18 06:00:00 13 14 Norte 25 Norte 0 -- -- 88
2020-03-18 05:00:00 13.2 4 Sudoeste 27 Norte 0 -- -- 76
2020-03-18 04:00:00 13.1 11 Nordeste 27 Norte 0 -- -- 85
2020-03-18 03:00:00 12.5 6 Noroeste 20 Sudoeste 0.2 -- -- 89
2020-03-18 02:00:00 12.3 5 Sudoeste 21 Noroeste 2.6 -- -- 96
2020-03-18 01:00:00 13.1 6 Oeste 18 Oeste 0 -- -- 86
2020-03-18 00:00:00 13 4 Oeste 27 Norte 0 -- -- 87
2020-03-17 23:00:00 12.6 16 Norte 31 Norte 0.8 -- -- 92
2020-03-17 22:00:00 13.4 9 Norte 24 Nordeste 0 -- -- 77
2020-03-17 21:00:00 13.3 6 Norte 23 Nordeste 0.2 -- -- 87
2020-03-17 20:00:00 13.7 9 Norte 19 Norte 0.2 -- -- 83
2020-03-17 19:00:00 13.3 10 Nordeste 24 Norte 0.2 -- -- 91
2020-03-17 18:00:00 14.9 12 Norte 24 Norte 0 -- -- 79
2020-03-17 17:00:00 14.4 7 Nordeste 30 Nordeste 0 -- -- 88
2020-03-17 16:00:00 16.4 17 Nordeste 28 Nordeste 0 -- -- 78
2020-03-17 15:00:00 16.4 16 Nordeste 27 Nordeste 0.2 -- -- 78
2020-03-17 14:00:00 15.7 9 Nordeste 32 Nordeste 0.2 -- -- 80
2020-03-17 13:00:00 13.5 21 Nordeste 36 Nordeste 1.4 -- -- 95
2020-03-17 12:00:00 13.8 10 Este 27 Nordeste 0.2 -- -- 91
2020-03-17 11:00:00 14 13 Nordeste 24 Nordeste 0 -- -- 84
2020-03-17 10:00:00 14.6 10 Nordeste 27 Nordeste 0.2 -- -- 71
2020-03-17 09:00:00 12.5 4 Sudeste 27 Nordeste 0 -- -- 88
2020-03-17 08:00:00 12.6 13 Nordeste 30 Nordeste 0 -- -- 84
2020-03-17 07:00:00 11.9 14 Este 28 Nordeste 0.2 -- -- 90
2020-03-17 06:00:00 12.5 10 Nordeste 21 Nordeste 0 -- -- 89
2020-03-17 05:00:00 11.6 9 Sudeste 26 Este 0.4 -- -- 91
2020-03-17 04:00:00 11.7 21 Este 32 Nordeste 0 -- -- 93
2020-03-17 03:00:00 12.5 8 Nordeste 26 Nordeste 0 -- -- 83
2020-03-17 02:00:00 12.7 8 Nordeste 22 Nordeste 0.2 -- -- 86
2020-03-17 01:00:00 12 15 Este 36 Nordeste 0.2 -- -- 94
2020-03-17 00:00:00 13.9 22 Nordeste 36 Nordeste 0 -- -- 86
2020-03-16 23:00:00 14.4 11 Nordeste 28 Nordeste 0 -- -- 78
2020-03-16 22:00:00 14.5 24 Nordeste 33 Nordeste 0 -- -- 84
2020-03-16 21:00:00 14.5 16 Nordeste 32 Nordeste 0 -- -- 84
2020-03-16 20:00:00 14.3 21 Nordeste 31 Nordeste 0 -- -- 90
2020-03-16 19:00:00 14.7 12 Nordeste 26 Norte 0 -- -- 88
2020-03-16 18:00:00 14.6 12 Nordeste 27 Noroeste 2 -- -- 96
2020-03-16 17:00:00 15.4 7 Oeste 26 Noroeste 0.2 -- -- 87
2020-03-16 16:00:00 15.7 18 Norte 32 Norte 0 -- -- 84
2020-03-16 15:00:00 17.8 17 Nordeste 32 Nordeste 0 -- -- 74
2020-03-16 14:00:00 17.6 10 Noroeste 18 Norte 0 -- -- 73
2020-03-16 13:00:00 17.7 9 Noroeste 22 Noroeste 0 -- -- 65
2020-03-16 12:00:00 17 12 Norte 24 Nordeste 0 -- -- 63
2020-03-16 11:00:00 17.6 13 Nordeste 27 Nordeste 0 -- -- 61
2020-03-16 10:00:00 16 13 Nordeste 21 Nordeste 0 -- -- 73
2020-03-16 09:00:00 15.4 7 Nordeste 22 Nordeste 0 -- -- 71
2020-03-16 08:00:00 14.8 4 Nordeste 17 Nordeste 0 -- -- 74
2020-03-16 07:00:00 13.9 8 Este 33 Nordeste 0 -- -- 80
2020-03-16 06:00:00 14.4 14 Nordeste 27 Nordeste 0 -- -- 84
2020-03-16 05:00:00 14.3 16 Nordeste 30 Nordeste 0 -- -- 83
2020-03-16 04:00:00 14.1 17 Nordeste 31 Nordeste 0.6 -- -- 91
2020-03-16 03:00:00 14.1 7 Este 26 Nordeste 0 -- -- 93
2020-03-16 02:00:00 14 6 Nordeste 17 Sudoeste 0.8 -- -- 94
2020-03-16 01:00:00 13.9 8 Este 21 Nordeste 0.2 -- -- 89
2020-03-16 00:00:00 13.5 4 Oeste 18 Nordeste 1.2 -- -- 90
2020-03-15 23:00:00 13.8 14 Nordeste 30 Nordeste 0 -- -- 87
2020-03-15 22:00:00 15.2 7 Norte 16 Norte 0 -- -- 76
2020-03-15 21:00:00 15.2 10 Noroeste 19 Noroeste 0 -- -- 74
2020-03-15 20:00:00 14.8 8 Noroeste 23 Noroeste 0 -- -- 86
2020-03-15 19:00:00 15.2 7 Oeste 18 Nordeste 0 -- -- 82
2020-03-15 18:00:00 15.8 11 Norte 21 Noroeste 0 -- -- 82
2020-03-15 17:00:00 15.8 8 Noroeste 25 Oeste 0 -- -- 79
2020-03-15 16:00:00 15 6 Sudoeste 19 Oeste 0.4 -- -- 84
2020-03-15 15:00:00 18.3 11 Oeste 22 Oeste 0 -- -- 63
2020-03-15 14:00:00 17.1 8 Oeste 15 Oeste 0 -- -- 73
2020-03-15 13:00:00 14.4 8 Noroeste 24 Oeste 0.2 -- -- 85
2020-03-15 12:00:00 17.1 9 Oeste 14 Oeste 0 -- -- 71
2020-03-15 11:00:00 15.1 3 Oeste 14 Noroeste 0 -- -- 79
2020-03-15 10:00:00 12.9 7 Este 24 Nordeste 0.2 -- -- 95
2020-03-15 09:00:00 13.5 9 Nordeste 21 Norte 0.4 -- -- 91
2020-03-15 08:00:00 13.9 2 Oeste 9 Noroeste 0 -- -- 85
2020-03-15 07:00:00 13.4 4 Oeste 9 Sur 0 -- -- 88
2020-03-15 06:00:00 12.9 5 Sur 22 Sur 0.2 -- -- 85
2020-03-15 05:00:00 11.6 7 Sudoeste 27 Norte 0.8 -- -- 96
2020-03-15 04:00:00 13.4 5 Sudoeste 13 Sudoeste 0 -- -- 84
2020-03-15 03:00:00 13.4 5 Norte 11 Este 0 -- -- 86
2020-03-15 02:00:00 12.7 9 Este 27 Nordeste 0.2 -- -- 90
2020-03-15 01:00:00 14.5 5 Noroeste 15 Noroeste 0 -- -- 80
2020-03-15 00:00:00 14.9 7 Noroeste 13 Noroeste 0 -- -- 77
2020-03-14 23:00:00 14.8 8 Noroeste 16 Norte 0 -- -- 79
2020-03-14 22:00:00 15.2 10 Noroeste 18 Oeste 0 -- -- 76
2020-03-14 21:00:00 15.1 8 Noroeste 18 Noroeste 0 -- -- 74
2020-03-14 20:00:00 15.4 10 Noroeste 16 Noroeste 0 -- -- 73
2020-03-14 19:00:00 15.9 10 Noroeste 17 Norte 0 -- -- 71
2020-03-14 18:00:00 16.3 10 Norte 21 Noroeste 0 -- -- 69
2020-03-14 17:00:00 17.2 10 Norte 24 Norte 0 -- -- 66
2020-03-14 16:00:00 17.8 13 Nordeste 35 Nordeste 0 -- -- 65
2020-03-14 15:00:00 17.9 21 Nordeste 35 Nordeste 0 -- -- 65
2020-03-14 14:00:00 18.8 15 Nordeste 30 Nordeste 0 -- -- 64
2020-03-14 13:00:00 19.2 17 Nordeste 27 Nordeste 0 -- -- 58
2020-03-14 12:00:00 17.7 12 Nordeste 23 Nordeste 0 -- -- 68
2020-03-14 11:00:00 18.3 14 Nordeste 24 Nordeste 0 -- -- 62
2020-03-14 10:00:00 17.5 14 Nordeste 24 Nordeste 0 -- -- 63
2020-03-14 09:00:00 15.9 12 Nordeste 23 Nordeste 0 -- -- 70
2020-03-14 08:00:00 14.6 12 Este 21 Este 0 -- -- 81
2020-03-14 07:00:00 14.6 13 Nordeste 19 Este 0 -- -- 86
2020-03-14 06:00:00 14.5 9 Este 19 Nordeste 0 -- -- 84
2020-03-14 05:00:00 14.6 7 Este 17 Este 0 -- -- 84
2020-03-14 04:00:00 14.1 9 Este 20 Nordeste 0 -- -- 84
2020-03-14 03:00:00 14.6 9 Este 17 Este 0 -- -- 86
2020-03-14 02:00:00 14.5 9 Este 15 Este 0 -- -- 85
2020-03-14 01:00:00 14.7 8 Este 18 Este 0 -- -- 81
2020-03-14 00:00:00 15.3 12 Nordeste 22 Nordeste 0 -- -- 82
2020-03-13 23:00:00 15.5 14 Nordeste 22 Nordeste 0 -- -- 82
2020-03-13 22:00:00 15.8 10 Nordeste 22 Nordeste 0 -- -- 86
2020-03-13 21:00:00 15.9 10 Nordeste 24 Nordeste 0 -- -- 83
2020-03-13 20:00:00 15.9 5 Nordeste 15 Este 0 -- -- 84
2020-03-13 19:00:00 16.3 9 Nordeste 28 Nordeste 0 -- -- 80
2020-03-13 18:00:00 17.3 16 Nordeste 33 Nordeste 0 -- -- 71
2020-03-13 17:00:00 17.8 23 Nordeste 33 Nordeste 0 -- -- 71
2020-03-13 16:00:00 18.6 19 Nordeste 35 Nordeste 0 -- -- 66
2020-03-13 15:00:00 19.3 19 Nordeste 33 Nordeste 0 -- -- 69
2020-03-13 14:00:00 20.2 23 Nordeste 36 Nordeste 0 -- -- 61
2020-03-13 13:00:00 20.5 19 Nordeste 35 Nordeste 0 -- -- 63
2020-03-13 12:00:00 19.6 22 Nordeste 36 Nordeste 0 -- -- 65
2020-03-13 11:00:00 18.8 15 Nordeste 30 Nordeste 0 -- -- 66
2020-03-13 10:00:00 17.6 18 Nordeste 28 Nordeste 0 -- -- 73
2020-03-13 09:00:00 16.3 15 Nordeste 27 Nordeste 0 -- -- 78
2020-03-13 08:00:00 13.6 9 Sudeste 15 Sudeste 0 -- -- 83
2020-03-13 07:00:00 13 9 Sudeste 17 Este 0 -- -- 85
2020-03-13 06:00:00 13.2 11 Sudeste 16 Sudeste 0 -- -- 87
2020-03-13 05:00:00 14.1 8 Sudeste 15 Este 0 -- -- 88
2020-03-13 04:00:00 13.7 10 Sudeste 15 Este 0 -- -- 87
2020-03-13 03:00:00 14 6 Sudeste 10 Sudeste 0 -- -- 87
2020-03-13 02:00:00 14.7 4 Sudeste 13 Este 0 -- -- 88
2020-03-13 01:00:00 14.6 5 Sudeste 8 Sudeste 0 -- -- 85
2020-03-13 00:00:00 15.7 4 Nordeste 6 Nordeste 0 -- -- 87
2020-03-12 23:00:00 16.1 0 Calma 9 Norte 0 -- -- 89
2020-03-12 22:00:00 16.6 6 Nordeste 13 Nordeste 0 -- -- 88
2020-03-12 21:00:00 16.8 2 Nordeste 6 Noroeste 0 -- -- 89
2020-03-12 20:00:00 16.9 3 Noroeste 9 Norte 0 -- -- 89
2020-03-12 19:00:00 17.5 7 Nordeste 21 Nordeste 0 -- -- 87
2020-03-12 18:00:00 18.5 13 Nordeste 21 Nordeste 0 -- -- 82
2020-03-12 17:00:00 20.6 12 Norte 19 Nordeste 0 -- -- 73
2020-03-12 16:00:00 21.5 8 Noroeste 17 Noroeste 0 -- -- 69
2020-03-12 15:00:00 21.7 6 Noroeste 15 Oeste 0 -- -- 68
2020-03-12 14:00:00 20.5 7 Oeste 14 Oeste 0 -- -- 69
2020-03-12 13:00:00 20 8 Oeste 16 Oeste 0 -- -- 71
2020-03-12 12:00:00 19.6 8 Oeste 14 Oeste 0 -- -- 66
2020-03-12 11:00:00 19.4 5 Oeste 9 Oeste 0 -- -- 60
2020-03-12 10:00:00 18.7 5 Oeste 9 Oeste 0 -- -- 53
2020-03-12 09:00:00 16.8 4 Sudoeste 8 Sudoeste 0 -- -- 66
2020-03-12 08:00:00 14.1 3 Sur 9 Sudoeste 0 -- -- 75
2020-03-12 07:00:00 16.4 5 Oeste 24 Sur 0 -- -- 78
2020-03-12 06:00:00 19.4 12 Sudeste 22 Sudeste 0 -- -- 13
2020-03-12 05:00:00 16.5 15 Sudeste 22 Este 0 -- -- 18
2020-03-12 04:00:00 12.7 6 Sur 9 Sur 0 -- -- 50
2020-03-12 03:00:00 13.5 5 Sudoeste 8 Sur 0 -- -- 75
2020-03-12 02:00:00 13.7 4 Nordeste 10 Sudeste 0 -- -- 68
2020-03-12 01:00:00 14.6 4 Sudoeste 10 Sudoeste 0 -- -- 51
2020-03-12 00:00:00 14.6 6 Sudoeste 9 Sudoeste 0 -- -- 65
2020-03-11 23:00:00 15.2 4 Sudoeste 8 Sudeste 0 -- -- 63
2020-03-11 22:00:00 16.7 0 Calma 6 Sudeste 0 -- -- 24
2020-03-11 21:00:00 17.3 2 Este 12 Sur 0 -- -- 30
2020-03-11 20:00:00 18.8 8 Sudeste 13 Sudeste 0 -- -- 34
2020-03-11 19:00:00 18.6 0 Calma 6 Oeste 0 -- -- 74
2020-03-11 18:00:00 20.2 5 Oeste 10 Oeste 0 -- -- 66
2020-03-11 17:00:00 23.7 5 Oeste 8 Oeste 0 -- -- 51
2020-03-11 16:00:00 22.7 4 Oeste 9 Oeste 0 -- -- 37
2020-03-11 15:00:00 23.7 5 Oeste 9 Oeste 0 -- -- 52
2020-03-11 14:00:00 22.9 5 Noroeste 8 Norte 0 -- -- 51
2020-03-11 13:00:00 22.8 3 Norte 10 Oeste 0 -- -- 19
2020-03-11 12:00:00 21.2 6 Oeste 10 Oeste 0 -- -- 37
2020-03-11 11:00:00 19.5 6 Oeste 10 Oeste 0 -- -- 45
2020-03-11 10:00:00 19.1 0 Calma 12 Sudoeste 0 -- -- 35
2020-03-11 09:00:00 16.7 3 Este 10 Sudeste 0 -- -- 33
2020-03-11 08:00:00 15.4 7 Sur 14 Sudeste 0 -- -- 23
2020-03-11 07:00:00 14.5 7 Sur 12 Sudoeste 0 -- -- 23
2020-03-11 06:00:00 13.9 8 Sur 11 Sur 0 -- -- 40
2020-03-11 05:00:00 14 4 Sur 12 Sudeste 0 -- -- 42
2020-03-11 04:00:00 13.5 3 Sudoeste 9 Sur 0 -- -- 61
2020-03-11 03:00:00 13.3 7 Sur 12 Sudeste 0 -- -- 77
2020-03-11 02:00:00 13.4 4 Sudoeste 9 Sur 0 -- -- 66
2020-03-11 01:00:00 13.8 4 Sur 11 Sur 0 -- -- 75
2020-03-11 00:00:00 14.1 3 Sur 9 Sudoeste 0 -- -- 36
2020-03-10 23:00:00 14.8 2 Sur 5 Sur 0 -- -- 64
2020-03-10 22:00:00 16 0 Calma 9 Sur 0 -- -- 43
2020-03-10 21:00:00 16.3 3 Este 13 Sudeste 0 -- -- 51
2020-03-10 20:00:00 16.7 4 Sudoeste 8 Este 0 -- -- 61
2020-03-10 19:00:00 18 3 Nordeste 10 Nordeste 0 -- -- 79
2020-03-10 18:00:00 21.2 5 Noroeste 12 Norte 0 -- -- 67
2020-03-10 17:00:00 21.7 6 Norte 15 Oeste 0 -- -- 66
2020-03-10 16:00:00 21.1 10 Oeste 19 Oeste 0 -- -- 67
2020-03-10 15:00:00 21.1 10 Oeste 16 Oeste 0 -- -- 65
2020-03-10 14:00:00 20.7 9 Oeste 14 Oeste 0 -- -- 63
2020-03-10 13:00:00 21.2 6 Oeste 12 Noroeste 0 -- -- 60
2020-03-10 12:00:00 20.2 6 Oeste 10 Oeste 0 -- -- 64
2020-03-10 11:00:00 19.8 5 Noroeste 9 Norte 0 -- -- 64
2020-03-10 10:00:00 18.6 4 Oeste 10 Sudoeste 0 -- -- 68
2020-03-10 09:00:00 16.6 5 Sudoeste 10 Sudoeste 0 -- -- 73
2020-03-10 08:00:00 14.8 6 Sudoeste 9 Sudoeste 0 -- -- 86
2020-03-10 07:00:00 14.5 3 Sudoeste 7 Sudoeste 0 -- -- 82
2020-03-10 06:00:00 15.7 3 Sudoeste 15 Sudeste 0 -- -- 55
2020-03-10 05:00:00 19.3 7 Sudeste 27 Este 0 -- -- 25
2020-03-10 04:00:00 19.1 20 Sudeste 34 Sudeste 0 -- -- 19
2020-03-10 03:00:00 19 23 Sudeste 35 Sudeste 0 -- -- 21
2020-03-10 02:00:00 19.2 21 Sudeste 36 Este 0 -- -- 24
2020-03-10 01:00:00 19.8 21 Sudeste 37 Sudeste 0 -- -- 24
2020-03-10 00:00:00 20.1 22 Sudeste 37 Sudeste 0 -- -- 25
2020-03-09 23:00:00 19.7 18 Sudeste 30 Este 0 -- -- 24
2020-03-09 22:00:00 20.8 14 Sudeste 25 Este 0 -- -- 21
2020-03-09 21:00:00 20.8 12 Sudeste 18 Sudeste 0 -- -- 21
2020-03-09 20:00:00 18.9 7 Este 19 Sudeste 0 -- -- 24
2020-03-09 19:00:00 19.6 4 Nordeste 18 Este 0 -- -- 35
2020-03-09 18:00:00 21.7 7 Sudoeste 19 Sur 0 -- -- 63
2020-03-09 17:00:00 21.7 10 Oeste 21 Sudoeste 0 -- -- 65
2020-03-09 16:00:00 21.3 8 Oeste 16 Oeste 0 -- -- 68
2020-03-09 15:00:00 20.4 10 Oeste 17 Oeste 0 -- -- 70
2020-03-09 14:00:00 21.1 7 Oeste 20 Sur 0 -- -- 64
2020-03-09 13:00:00 27 14 Sudeste 36 Este 0 -- -- 29
2020-03-09 12:00:00 26.4 15 Sudeste 34 Sudeste 0 -- -- 20
2020-03-09 11:00:00 24.7 18 Sudeste 42 Sudeste 0 -- -- 22
2020-03-09 10:00:00 23.1 15 Sudeste 34 Este 0 -- -- 26
2020-03-09 09:00:00 17.3 5 Sudoeste 27 Sudeste 0 -- -- 75
2020-03-09 08:00:00 16.7 8 Este 22 Sudeste 0 -- -- 32
2020-03-09 07:00:00 14 3 Sudoeste 6 Oeste 0 -- -- 93
2020-03-09 06:00:00 17 4 Oeste 26 Este 0 -- -- 75
2020-03-09 05:00:00 18.9 17 Sudeste 28 Este 0 -- -- 29
2020-03-09 04:00:00 15.4 5 Sur 14 Sudeste 0 -- -- 82
2020-03-09 03:00:00 16.5 5 Noroeste 21 Este 0 -- -- 77
2020-03-09 02:00:00 14.6 5 Este 9 Sudeste 0 -- -- 88
2020-03-09 01:00:00 13.9 3 Oeste 10 Sur 0 -- -- 83
2020-03-09 00:00:00 14.4 4 Sur 8 Sur 0 -- -- 93